sensor_id;sensor_type;location;lat;lon;timestamp;P1;durP1;ratioP1;P2;durP2;ratioP2
69894;SDS011;57172;52.034;5.090;2023-01-01T00:02:35;17.17;;;8.67;;
69894;SDS011;57172;52.034;5.090;2023-01-01T00:05:03;27.85;;;13.40;;
69894;SDS011;57172;52.034;5.090;2023-01-01T00:07:31;31.50;;;14.77;;
69894;SDS011;57172;52.034;5.090;2023-01-01T00:09:58;35.15;;;13.65;;
69894;SDS011;57172;52.034;5.090;2023-01-01T00:12:43;24.00;;;11.98;;
69894;SDS011;57172;52.034;5.090;2023-01-01T00:15:10;29.67;;;13.97;;
69894;SDS011;57172;52.034;5.090;2023-01-01T00:17:37;32.15;;;13.77;;
69894;SDS011;57172;52.034;5.090;2023-01-01T00:20:04;25.33;;;12.43;;
69894;SDS011;57172;52.034;5.090;2023-01-01T00:22:32;17.45;;;8.88;;
69894;SDS011;57172;52.034;5.090;2023-01-01T00:25:18;20.77;;;9.63;;
69894;SDS011;57172;52.034;5.090;2023-01-01T00:27:45;24.97;;;11.70;;
69894;SDS011;57172;52.034;5.090;2023-01-01T00:30:12;20.75;;;10.20;;
69894;SDS011;57172;52.034;5.090;2023-01-01T00:32:39;21.25;;;10.20;;
69894;SDS011;57172;52.034;5.090;2023-01-01T00:35:06;15.85;;;7.78;;
69894;SDS011;57172;52.034;5.090;2023-01-01T00:37:33;20.00;;;8.10;;
69894;SDS011;57172;52.034;5.090;2023-01-01T00:40:00;17.13;;;7.17;;
69894;SDS011;57172;52.034;5.090;2023-01-01T00:42:27;16.45;;;5.88;;
69894;SDS011;57172;52.034;5.090;2023-01-01T00:44:54;12.73;;;5.72;;
69894;SDS011;57172;52.034;5.090;2023-01-01T00:47:21;13.88;;;4.45;;
69894;SDS011;57172;52.034;5.090;2023-01-01T00:49:48;21.23;;;8.35;;
69894;SDS011;57172;52.034;5.090;2023-01-01T00:52:14;14.37;;;6.67;;
69894;SDS011;57172;52.034;5.090;2023-01-01T00:54:41;15.70;;;5.55;;
69894;SDS011;57172;52.034;5.090;2023-01-01T00:57:08;18.35;;;4.95;;
69894;SDS011;57172;52.034;5.090;2023-01-01T00:59:35;10.95;;;4.88;;
69894;SDS011;57172;52.034;5.090;2023-01-01T01:02:02;12.93;;;4.85;;
69894;SDS011;57172;52.034;5.090;2023-01-01T01:04:29;10.13;;;4.20;;
69894;SDS011;57172;52.034;5.090;2023-01-01T01:06:56;13.98;;;5.68;;
69894;SDS011;57172;52.034;5.090;2023-01-01T01:09:22;17.60;;;4.60;;
69894;SDS011;57172;52.034;5.090;2023-01-01T01:11:49;13.10;;;4.20;;
69894;SDS011;57172;52.034;5.090;2023-01-01T01:14:36;13.10;;;3.83;;
69894;SDS011;57172;52.034;5.090;2023-01-01T01:17:03;14.83;;;4.37;;
69894;SDS011;57172;52.034;5.090;2023-01-01T01:19:30;15.10;;;3.83;;
69894;SDS011;57172;52.034;5.090;2023-01-01T01:21:56;11.77;;;3.80;;
69894;SDS011;57172;52.034;5.090;2023-01-01T01:24:23;10.40;;;3.50;;
69894;SDS011;57172;52.034;5.090;2023-01-01T01:26:51;6.38;;;2.83;;
69894;SDS011;57172;52.034;5.090;2023-01-01T01:29:18;8.63;;;3.20;;
69894;SDS011;57172;52.034;5.090;2023-01-01T01:31:45;8.57;;;3.03;;
69894;SDS011;57172;52.034;5.090;2023-01-01T01:34:12;12.90;;;3.50;;
69894;SDS011;57172;52.034;5.090;2023-01-01T01:36:42;10.30;;;3.20;;
69894;SDS011;57172;52.034;5.090;2023-01-01T01:39:12;12.23;;;3.63;;
69894;SDS011;57172;52.034;5.090;2023-01-01T01:41:39;9.93;;;3.10;;
69894;SDS011;57172;52.034;5.090;2023-01-01T01:47:14;11.38;;;3.10;;
69894;SDS011;57172;52.034;5.090;2023-01-01T01:50:06;6.72;;;2.80;;
69894;SDS011;57172;52.034;5.090;2023-01-01T01:52:35;9.07;;;2.97;;
69894;SDS011;57172;52.034;5.090;2023-01-01T01:55:04;7.50;;;2.70;;
69894;SDS011;57172;52.034;5.090;2023-01-01T01:57:33;8.73;;;3.10;;
69894;SDS011;57172;52.034;5.090;2023-01-01T02:00:01;8.95;;;3.20;;
69894;SDS011;57172;52.034;5.090;2023-01-01T02:02:38;10.73;;;3.30;;
69894;SDS011;57172;52.034;5.090;2023-01-01T02:05:13;8.65;;;2.97;;
69894;SDS011;57172;52.034;5.090;2023-01-01T02:07:42;8.67;;;3.10;;
69894;SDS011;57172;52.034;5.090;2023-01-01T02:10:09;7.38;;;2.92;;
69894;SDS011;57172;52.034;5.090;2023-01-01T02:12:36;9.90;;;2.60;;
69894;SDS011;57172;52.034;5.090;2023-01-01T02:15:03;8.93;;;2.67;;
69894;SDS011;57172;52.034;5.090;2023-01-01T02:17:32;7.35;;;2.65;;
69894;SDS011;57172;52.034;5.090;2023-01-01T02:23:01;7.88;;;2.70;;
69894;SDS011;57172;52.034;5.090;2023-01-01T02:31:54;6.60;;;2.60;;
69894;SDS011;57172;52.034;5.090;2023-01-01T02:34:33;11.27;;;2.60;;
69894;SDS011;57172;52.034;5.090;2023-01-01T02:37:04;8.23;;;2.30;;
69894;SDS011;57172;52.034;5.090;2023-01-01T02:39:34;6.85;;;2.50;;
69894;SDS011;57172;52.034;5.090;2023-01-01T02:42:05;8.52;;;2.35;;
69894;SDS011;57172;52.034;5.090;2023-01-01T02:44:34;7.30;;;2.17;;
69894;SDS011;57172;52.034;5.090;2023-01-01T02:47:05;5.70;;;2.53;;
69894;SDS011;57172;52.034;5.090;2023-01-01T02:49:34;7.20;;;2.42;;
69894;SDS011;57172;52.034;5.090;2023-01-01T02:52:12;7.18;;;2.20;;
69894;SDS011;57172;52.034;5.090;2023-01-01T02:54:52;8.27;;;2.42;;
69894;SDS011;57172;52.034;5.090;2023-01-01T02:57:31;9.23;;;2.70;;
69894;SDS011;57172;52.034;5.090;2023-01-01T03:00:07;6.57;;;2.27;;
69894;SDS011;57172;52.034;5.090;2023-01-01T03:17:16;7.57;;;2.40;;
69894;SDS011;57172;52.034;5.090;2023-01-01T03:19:58;8.57;;;2.30;;
69894;SDS011;57172;52.034;5.090;2023-01-01T03:22:32;7.32;;;2.30;;
69894;SDS011;57172;52.034;5.090;2023-01-01T03:25:18;6.35;;;2.20;;
69894;SDS011;57172;52.034;5.090;2023-01-01T03:27:49;5.23;;;2.03;;
69894;SDS011;57172;52.034;5.090;2023-01-01T03:30:22;7.22;;;2.42;;
69894;SDS011;57172;52.034;5.090;2023-01-01T03:32:57;10.43;;;2.35;;
69894;SDS011;57172;52.034;5.090;2023-01-01T03:38:21;8.18;;;2.53;;
69894;SDS011;57172;52.034;5.090;2023-01-01T03:40:52;9.90;;;2.20;;
69894;SDS011;57172;52.034;5.090;2023-01-01T03:43:45;6.75;;;2.30;;
69894;SDS011;57172;52.034;5.090;2023-01-01T03:46:20;11.77;;;2.45;;
69894;SDS011;57172;52.034;5.090;2023-01-01T03:48:51;9.10;;;2.42;;
69894;SDS011;57172;52.034;5.090;2023-01-01T03:51:36;13.07;;;3.33;;
69894;SDS011;57172;52.034;5.090;2023-01-01T04:00:10;6.05;;;2.20;;
69894;SDS011;57172;52.034;5.090;2023-01-01T04:02:49;8.63;;;2.30;;
69894;SDS011;57172;52.034;5.090;2023-01-01T04:05:25;7.30;;;2.35;;
69894;SDS011;57172;52.034;5.090;2023-01-01T04:07:53;7.97;;;2.40;;
69894;SDS011;57172;52.034;5.090;2023-01-01T04:10:21;7.03;;;2.30;;
69894;SDS011;57172;52.034;5.090;2023-01-01T04:12:50;9.82;;;2.38;;
69894;SDS011;57172;52.034;5.090;2023-01-01T04:15:21;10.38;;;2.53;;
69894;SDS011;57172;52.034;5.090;2023-01-01T04:17:51;7.75;;;2.70;;
69894;SDS011;57172;52.034;5.090;2023-01-01T04:20:18;8.57;;;2.40;;
69894;SDS011;57172;52.034;5.090;2023-01-01T04:22:46;8.40;;;2.90;;
69894;SDS011;57172;52.034;5.090;2023-01-01T04:25:13;8.88;;;2.60;;
69894;SDS011;57172;52.034;5.090;2023-01-01T04:27:40;13.38;;;2.60;;
69894;SDS011;57172;52.034;5.090;2023-01-01T04:30:08;10.13;;;2.90;;
69894;SDS011;57172;52.034;5.090;2023-01-01T04:32:37;12.63;;;2.73;;
69894;SDS011;57172;52.034;5.090;2023-01-01T04:35:04;12.40;;;2.75;;
69894;SDS011;57172;52.034;5.090;2023-01-01T04:37:34;11.77;;;2.70;;
69894;SDS011;57172;52.034;5.090;2023-01-01T04:40:02;8.05;;;2.50;;
69894;SDS011;57172;52.034;5.090;2023-01-01T04:42:29;10.63;;;2.75;;
69894;SDS011;57172;52.034;5.090;2023-01-01T04:44:57;10.37;;;2.50;;
69894;SDS011;57172;52.034;5.090;2023-01-01T04:47:24;7.07;;;2.50;;
69894;SDS011;57172;52.034;5.090;2023-01-01T04:49:52;9.77;;;2.45;;
69894;SDS011;57172;52.034;5.090;2023-01-01T04:52:19;8.02;;;2.10;;
69894;SDS011;57172;52.034;5.090;2023-01-01T04:54:47;8.30;;;2.45;;
69894;SDS011;57172;52.034;5.090;2023-01-01T04:57:13;12.47;;;2.80;;
69894;SDS011;57172;52.034;5.090;2023-01-01T04:59:40;9.93;;;2.38;;
69894;SDS011;57172;52.034;5.090;2023-01-01T05:02:07;8.80;;;2.40;;
69894;SDS011;57172;52.034;5.090;2023-01-01T05:04:34;7.15;;;2.10;;
69894;SDS011;57172;52.034;5.090;2023-01-01T05:07:01;6.43;;;2.10;;
69894;SDS011;57172;52.034;5.090;2023-01-01T05:09:28;7.03;;;2.27;;
69894;SDS011;57172;52.034;5.090;2023-01-01T05:11:55;7.43;;;2.20;;
69894;SDS011;57172;52.034;5.090;2023-01-01T05:14:22;4.13;;;1.67;;
69894;SDS011;57172;52.034;5.090;2023-01-01T05:16:48;9.93;;;2.17;;
69894;SDS011;57172;52.034;5.090;2023-01-01T05:19:15;8.50;;;1.90;;
69894;SDS011;57172;52.034;5.090;2023-01-01T05:21:42;5.80;;;1.83;;
69894;SDS011;57172;52.034;5.090;2023-01-01T05:24:11;9.55;;;1.77;;
69894;SDS011;57172;52.034;5.090;2023-01-01T05:26:40;5.35;;;1.80;;
69894;SDS011;57172;52.034;5.090;2023-01-01T05:29:09;6.95;;;2.17;;
69894;SDS011;57172;52.034;5.090;2023-01-01T05:31:42;9.75;;;2.20;;
69894;SDS011;57172;52.034;5.090;2023-01-01T05:34:10;5.63;;;1.70;;
69894;SDS011;57172;52.034;5.090;2023-01-01T05:36:38;7.13;;;2.00;;
69894;SDS011;57172;52.034;5.090;2023-01-01T05:39:06;7.38;;;2.00;;
69894;SDS011;57172;52.034;5.090;2023-01-01T05:41:34;5.18;;;1.70;;
69894;SDS011;57172;52.034;5.090;2023-01-01T05:44:04;4.32;;;1.48;;
69894;SDS011;57172;52.034;5.090;2023-01-01T05:46:32;6.60;;;1.57;;
69894;SDS011;57172;52.034;5.090;2023-01-01T05:48:59;5.20;;;1.40;;
69894;SDS011;57172;52.034;5.090;2023-01-01T05:51:27;5.93;;;1.75;;
69894;SDS011;57172;52.034;5.090;2023-01-01T05:53:55;5.57;;;1.60;;
69894;SDS011;57172;52.034;5.090;2023-01-01T05:56:23;4.53;;;1.58;;
69894;SDS011;57172;52.034;5.090;2023-01-01T05:58:50;4.30;;;1.57;;
69894;SDS011;57172;52.034;5.090;2023-01-01T06:01:18;5.68;;;1.70;;
69894;SDS011;57172;52.034;5.090;2023-01-01T06:03:48;4.28;;;1.60;;
69894;SDS011;57172;52.034;5.090;2023-01-01T06:06:17;6.03;;;1.50;;
69894;SDS011;57172;52.034;5.090;2023-01-01T06:08:49;6.53;;;1.60;;
69894;SDS011;57172;52.034;5.090;2023-01-01T06:11:16;4.57;;;1.30;;
69894;SDS011;57172;52.034;5.090;2023-01-01T06:13:43;8.20;;;1.35;;
69894;SDS011;57172;52.034;5.090;2023-01-01T06:16:10;7.07;;;1.75;;
69894;SDS011;57172;52.034;5.090;2023-01-01T06:18:39;5.00;;;1.40;;
69894;SDS011;57172;52.034;5.090;2023-01-01T06:21:10;5.20;;;1.50;;
69894;SDS011;57172;52.034;5.090;2023-01-01T06:23:41;3.87;;;1.50;;
69894;SDS011;57172;52.034;5.090;2023-01-01T06:26:10;4.05;;;1.60;;
69894;SDS011;57172;52.034;5.090;2023-01-01T06:28:38;6.72;;;1.58;;
69894;SDS011;57172;52.034;5.090;2023-01-01T06:31:07;5.57;;;1.60;;
69894;SDS011;57172;52.034;5.090;2023-01-01T06:33:36;7.25;;;1.60;;
69894;SDS011;57172;52.034;5.090;2023-01-01T06:36:04;5.77;;;1.50;;
69894;SDS011;57172;52.034;5.090;2023-01-01T06:38:34;4.90;;;1.40;;
69894;SDS011;57172;52.034;5.090;2023-01-01T06:41:04;6.22;;;1.38;;
69894;SDS011;57172;52.034;5.090;2023-01-01T06:43:41;6.05;;;1.40;;
69894;SDS011;57172;52.034;5.090;2023-01-01T06:46:25;4.78;;;1.30;;
69894;SDS011;57172;52.034;5.090;2023-01-01T06:48:55;7.03;;;1.20;;
69894;SDS011;57172;52.034;5.090;2023-01-01T06:51:28;4.93;;;1.30;;
69894;SDS011;57172;52.034;5.090;2023-01-01T06:54:02;2.90;;;1.38;;
69894;SDS011;57172;52.034;5.090;2023-01-01T06:56:30;7.85;;;1.40;;
69894;SDS011;57172;52.034;5.090;2023-01-01T06:58:58;4.78;;;1.50;;
69894;SDS011;57172;52.034;5.090;2023-01-01T07:01:26;3.50;;;1.30;;
69894;SDS011;57172;52.034;5.090;2023-01-01T07:03:55;3.38;;;1.40;;
69894;SDS011;57172;52.034;5.090;2023-01-01T07:06:24;3.80;;;1.20;;
69894;SDS011;57172;52.034;5.090;2023-01-01T07:08:52;7.80;;;1.40;;
69894;SDS011;57172;52.034;5.090;2023-01-01T07:11:19;8.25;;;1.60;;
69894;SDS011;57172;52.034;5.090;2023-01-01T07:13:46;3.30;;;1.20;;
69894;SDS011;57172;52.034;5.090;2023-01-01T07:16:13;7.93;;;1.60;;
69894;SDS011;57172;52.034;5.090;2023-01-01T07:18:41;4.78;;;1.35;;
69894;SDS011;57172;52.034;5.090;2023-01-01T07:24:03;5.05;;;1.30;;
69894;SDS011;57172;52.034;5.090;2023-01-01T07:26:31;6.53;;;1.30;;
69894;SDS011;57172;52.034;5.090;2023-01-01T07:28:59;6.35;;;1.48;;
69894;SDS011;57172;52.034;5.090;2023-01-01T07:31:37;5.32;;;1.48;;
69894;SDS011;57172;52.034;5.090;2023-01-01T07:34:05;6.25;;;1.38;;
69894;SDS011;57172;52.034;5.090;2023-01-01T07:36:33;7.55;;;2.13;;
69894;SDS011;57172;52.034;5.090;2023-01-01T07:39:01;4.20;;;1.50;;
69894;SDS011;57172;52.034;5.090;2023-01-01T07:41:28;7.20;;;1.50;;
69894;SDS011;57172;52.034;5.090;2023-01-01T07:43:57;7.85;;;1.40;;
69894;SDS011;57172;52.034;5.090;2023-01-01T07:46:24;7.53;;;1.40;;
69894;SDS011;57172;52.034;5.090;2023-01-01T07:48:51;5.93;;;1.40;;
69894;SDS011;57172;52.034;5.090;2023-01-01T07:51:18;6.90;;;1.20;;
69894;SDS011;57172;52.034;5.090;2023-01-01T07:53:45;5.18;;;1.30;;
69894;SDS011;57172;52.034;5.090;2023-01-01T07:56:11;5.20;;;1.17;;
69894;SDS011;57172;52.034;5.090;2023-01-01T07:58:41;12.52;;;1.30;;
69894;SDS011;57172;52.034;5.090;2023-01-01T08:01:09;8.18;;;1.50;;
69894;SDS011;57172;52.034;5.090;2023-01-01T08:03:37;6.47;;;1.40;;
69894;SDS011;57172;52.034;5.090;2023-01-01T08:06:08;5.00;;;1.40;;
69894;SDS011;57172;52.034;5.090;2023-01-01T08:08:39;4.35;;;1.05;;
69894;SDS011;57172;52.034;5.090;2023-01-01T08:11:07;5.47;;;1.13;;
69894;SDS011;57172;52.034;5.090;2023-01-01T08:13:34;6.43;;;1.45;;
69894;SDS011;57172;52.034;5.090;2023-01-01T08:16:01;5.37;;;1.23;;
69894;SDS011;57172;52.034;5.090;2023-01-01T08:18:28;6.93;;;1.40;;
69894;SDS011;57172;52.034;5.090;2023-01-01T08:20:55;3.35;;;1.20;;
69894;SDS011;57172;52.034;5.090;2023-01-01T08:23:22;6.75;;;2.03;;
69894;SDS011;57172;52.034;5.090;2023-01-01T08:25:49;9.40;;;1.52;;
69894;SDS011;57172;52.034;5.090;2023-01-01T08:28:16;9.30;;;1.50;;
69894;SDS011;57172;52.034;5.090;2023-01-01T08:30:43;11.30;;;1.65;;
69894;SDS011;57172;52.034;5.090;2023-01-01T08:33:10;7.97;;;1.60;;
69894;SDS011;57172;52.034;5.090;2023-01-01T08:35:37;8.77;;;1.70;;
69894;SDS011;57172;52.034;5.090;2023-01-01T08:38:07;9.40;;;1.77;;
69894;SDS011;57172;52.034;5.090;2023-01-01T08:40:36;11.37;;;1.80;;
69894;SDS011;57172;52.034;5.090;2023-01-01T08:43:03;6.65;;;1.60;;
69894;SDS011;57172;52.034;5.090;2023-01-01T08:45:30;11.00;;;1.88;;
69894;SDS011;57172;52.034;5.090;2023-01-01T08:47:56;7.32;;;1.50;;
69894;SDS011;57172;52.034;5.090;2023-01-01T08:50:23;5.78;;;1.40;;
69894;SDS011;57172;52.034;5.090;2023-01-01T08:52:50;10.10;;;1.50;;
69894;SDS011;57172;52.034;5.090;2023-01-01T08:55:17;6.80;;;1.60;;
69894;SDS011;57172;52.034;5.090;2023-01-01T08:57:43;8.32;;;1.60;;
69894;SDS011;57172;52.034;5.090;2023-01-01T09:00:11;6.78;;;1.80;;
69894;SDS011;57172;52.034;5.090;2023-01-01T09:02:38;7.10;;;1.80;;
69894;SDS011;57172;52.034;5.090;2023-01-01T09:05:05;11.73;;;1.87;;
69894;SDS011;57172;52.034;5.090;2023-01-01T09:07:33;7.68;;;1.90;;
69894;SDS011;57172;52.034;5.090;2023-01-01T09:09:59;8.88;;;1.75;;
69894;SDS011;57172;52.034;5.090;2023-01-01T09:12:26;14.40;;;2.50;;
69894;SDS011;57172;52.034;5.090;2023-01-01T09:14:53;6.95;;;1.55;;
69894;SDS011;57172;52.034;5.090;2023-01-01T09:17:20;13.93;;;2.10;;
69894;SDS011;57172;52.034;5.090;2023-01-01T09:19:47;9.20;;;1.60;;
69894;SDS011;57172;52.034;5.090;2023-01-01T09:22:14;10.80;;;2.00;;
69894;SDS011;57172;52.034;5.090;2023-01-01T09:24:41;9.13;;;1.80;;
69894;SDS011;57172;52.034;5.090;2023-01-01T09:27:08;7.20;;;1.92;;
69894;SDS011;57172;52.034;5.090;2023-01-01T09:29:35;12.90;;;1.80;;
69894;SDS011;57172;52.034;5.090;2023-01-01T09:32:02;7.05;;;1.83;;
69894;SDS011;57172;52.034;5.090;2023-01-01T09:34:29;5.80;;;1.80;;
69894;SDS011;57172;52.034;5.090;2023-01-01T09:36:55;11.52;;;1.80;;
69894;SDS011;57172;52.034;5.090;2023-01-01T09:39:22;6.13;;;1.85;;
69894;SDS011;57172;52.034;5.090;2023-01-01T09:45:24;7.47;;;1.70;;
69894;SDS011;57172;52.034;5.090;2023-01-01T09:47:46;10.02;;;2.10;;
69894;SDS011;57172;52.034;5.090;2023-01-01T09:50:17;9.48;;;1.58;;
69894;SDS011;57172;52.034;5.090;2023-01-01T09:52:57;7.88;;;2.00;;
69894;SDS011;57172;52.034;5.090;2023-01-01T09:55:56;6.77;;;1.50;;
69894;SDS011;57172;52.034;5.090;2023-01-01T09:58:24;8.25;;;2.13;;
69894;SDS011;57172;52.034;5.090;2023-01-01T10:00:54;6.43;;;1.88;;
69894;SDS011;57172;52.034;5.090;2023-01-01T10:03:45;12.77;;;2.20;;
69894;SDS011;57172;52.034;5.090;2023-01-01T10:06:17;9.52;;;2.10;;
69894;SDS011;57172;52.034;5.090;2023-01-01T10:09:04;8.47;;;1.77;;
69894;SDS011;57172;52.034;5.090;2023-01-01T10:11:57;5.93;;;1.70;;
69894;SDS011;57172;52.034;5.090;2023-01-01T10:14:31;7.18;;;1.70;;
69894;SDS011;57172;52.034;5.090;2023-01-01T10:17:10;7.25;;;1.70;;
69894;SDS011;57172;52.034;5.090;2023-01-01T10:19:47;6.68;;;1.90;;
69894;SDS011;57172;52.034;5.090;2023-01-01T10:22:31;8.27;;;2.00;;
69894;SDS011;57172;52.034;5.090;2023-01-01T10:25:04;9.30;;;1.92;;
69894;SDS011;57172;52.034;5.090;2023-01-01T10:28:04;8.68;;;1.70;;
69894;SDS011;57172;52.034;5.090;2023-01-01T10:30:38;10.75;;;1.80;;
69894;SDS011;57172;52.034;5.090;2023-01-01T10:33:09;6.30;;;1.85;;
69894;SDS011;57172;52.034;5.090;2023-01-01T10:35:39;8.23;;;1.90;;
69894;SDS011;57172;52.034;5.090;2023-01-01T10:38:17;8.63;;;1.90;;
69894;SDS011;57172;52.034;5.090;2023-01-01T10:40:50;8.30;;;1.77;;
69894;SDS011;57172;52.034;5.090;2023-01-01T10:43:21;7.43;;;1.92;;
69894;SDS011;57172;52.034;5.090;2023-01-01T10:45:49;10.40;;;2.28;;
69894;SDS011;57172;52.034;5.090;2023-01-01T10:48:20;9.17;;;1.80;;
69894;SDS011;57172;52.034;5.090;2023-01-01T10:50:52;12.90;;;2.00;;
69894;SDS011;57172;52.034;5.090;2023-01-01T10:53:31;10.10;;;1.92;;
69894;SDS011;57172;52.034;5.090;2023-01-01T10:56:16;7.93;;;1.83;;
69894;SDS011;57172;52.034;5.090;2023-01-01T10:58:45;6.30;;;1.60;;
69894;SDS011;57172;52.034;5.090;2023-01-01T11:09:02;8.48;;;1.63;;
69894;SDS011;57172;52.034;5.090;2023-01-01T11:11:41;7.72;;;1.83;;
69894;SDS011;57172;52.034;5.090;2023-01-01T11:14:53;7.57;;;1.87;;
69894;SDS011;57172;52.034;5.090;2023-01-01T11:17:03;8.20;;;1.92;;
69894;SDS011;57172;52.034;5.090;2023-01-01T11:19:31;10.32;;;2.25;;
69894;SDS011;57172;52.034;5.090;2023-01-01T11:22:02;7.90;;;2.20;;
69894;SDS011;57172;52.034;5.090;2023-01-01T11:24:31;10.88;;;2.60;;
69894;SDS011;57172;52.034;5.090;2023-01-01T11:27:16;9.83;;;2.40;;
69894;SDS011;57172;52.034;5.090;2023-01-01T11:29:45;7.78;;;2.40;;
69894;SDS011;57172;52.034;5.090;2023-01-01T11:32:16;8.38;;;2.30;;
69894;SDS011;57172;52.034;5.090;2023-01-01T11:35:14;7.82;;;2.30;;
69894;SDS011;57172;52.034;5.090;2023-01-01T11:37:46;10.50;;;2.28;;
69894;SDS011;57172;52.034;5.090;2023-01-01T11:40:16;9.53;;;2.50;;
69894;SDS011;57172;52.034;5.090;2023-01-01T11:42:47;9.80;;;2.60;;
69894;SDS011;57172;52.034;5.090;2023-01-01T11:45:24;11.30;;;2.63;;
69894;SDS011;57172;52.034;5.090;2023-01-01T11:48:04;12.30;;;2.80;;
69894;SDS011;57172;52.034;5.090;2023-01-01T11:50:37;9.57;;;2.20;;
69894;SDS011;57172;52.034;5.090;2023-01-01T11:55:51;13.52;;;2.90;;
69894;SDS011;57172;52.034;5.090;2023-01-01T12:01:06;9.20;;;2.65;;
69894;SDS011;57172;52.034;5.090;2023-01-01T12:03:57;9.98;;;2.60;;
69894;SDS011;57172;52.034;5.090;2023-01-01T12:06:48;13.40;;;2.97;;
69894;SDS011;57172;52.034;5.090;2023-01-01T12:12:16;12.95;;;2.90;;
69894;SDS011;57172;52.034;5.090;2023-01-01T12:14:58;10.20;;;2.90;;
69894;SDS011;57172;52.034;5.090;2023-01-01T12:17:36;11.52;;;2.65;;
69894;SDS011;57172;52.034;5.090;2023-01-01T12:21:09;11.23;;;2.40;;
69894;SDS011;57172;52.034;5.090;2023-01-01T12:23:07;9.73;;;2.53;;
69894;SDS011;57172;52.034;5.090;2023-01-01T12:25:39;12.80;;;2.75;;
69894;SDS011;57172;52.034;5.090;2023-01-01T12:36:38;8.63;;;2.25;;
69894;SDS011;57172;52.034;5.090;2023-01-01T12:39:43;9.90;;;2.67;;
69894;SDS011;57172;52.034;5.090;2023-01-01T12:42:30;9.43;;;2.10;;
69894;SDS011;57172;52.034;5.090;2023-01-01T12:45:16;11.85;;;2.22;;
69894;SDS011;57172;52.034;5.090;2023-01-01T12:48:16;10.20;;;2.10;;
69894;SDS011;57172;52.034;5.090;2023-01-01T12:53:39;11.02;;;2.35;;
69894;SDS011;57172;52.034;5.090;2023-01-01T12:56:50;9.52;;;2.00;;
69894;SDS011;57172;52.034;5.090;2023-01-01T12:59:26;13.00;;;2.05;;
69894;SDS011;57172;52.034;5.090;2023-01-01T13:01:58;11.33;;;2.40;;
69894;SDS011;57172;52.034;5.090;2023-01-01T13:04:27;14.77;;;2.00;;
69894;SDS011;57172;52.034;5.090;2023-01-01T13:06:56;9.90;;;2.03;;
69894;SDS011;57172;52.034;5.090;2023-01-01T13:09:32;13.55;;;2.17;;
69894;SDS011;57172;52.034;5.090;2023-01-01T13:12:08;8.63;;;2.38;;
69894;SDS011;57172;52.034;5.090;2023-01-01T13:14:38;8.87;;;2.40;;
69894;SDS011;57172;52.034;5.090;2023-01-01T13:17:20;11.60;;;2.35;;
69894;SDS011;57172;52.034;5.090;2023-01-01T13:19:51;10.77;;;2.20;;
69894;SDS011;57172;52.034;5.090;2023-01-01T13:33:17;9.10;;;2.10;;
69894;SDS011;57172;52.034;5.090;2023-01-01T13:38:49;14.20;;;2.33;;
69894;SDS011;57172;52.034;5.090;2023-01-01T13:46:29;13.40;;;4.03;;
69894;SDS011;57172;52.034;5.090;2023-01-01T14:02:21;17.95;;;4.35;;
69894;SDS011;57172;52.034;5.090;2023-01-01T14:07:15;14.73;;;3.70;;
69894;SDS011;57172;52.034;5.090;2023-01-01T14:10:17;11.70;;;3.10;;
69894;SDS011;57172;52.034;5.090;2023-01-01T14:12:44;12.45;;;2.75;;
69894;SDS011;57172;52.034;5.090;2023-01-01T14:17:53;10.63;;;2.67;;
69894;SDS011;57172;52.034;5.090;2023-01-01T14:20:24;7.43;;;2.33;;
69894;SDS011;57172;52.034;5.090;2023-01-01T14:22:58;14.27;;;2.97;;
69894;SDS011;57172;52.034;5.090;2023-01-01T14:25:31;12.02;;;2.67;;
69894;SDS011;57172;52.034;5.090;2023-01-01T14:27:58;10.43;;;2.75;;
69894;SDS011;57172;52.034;5.090;2023-01-01T14:30:26;9.23;;;2.40;;
69894;SDS011;57172;52.034;5.090;2023-01-01T14:32:58;10.35;;;2.50;;
69894;SDS011;57172;52.034;5.090;2023-01-01T14:35:26;10.30;;;2.67;;
69894;SDS011;57172;52.034;5.090;2023-01-01T14:37:54;9.93;;;2.83;;
69894;SDS011;57172;52.034;5.090;2023-01-01T14:40:25;13.50;;;3.10;;
69894;SDS011;57172;52.034;5.090;2023-01-01T14:43:04;11.10;;;2.72;;
69894;SDS011;57172;52.034;5.090;2023-01-01T14:45:35;12.23;;;2.60;;
69894;SDS011;57172;52.034;5.090;2023-01-01T14:48:10;13.67;;;2.77;;
69894;SDS011;57172;52.034;5.090;2023-01-01T14:50:47;10.55;;;2.75;;
69894;SDS011;57172;52.034;5.090;2023-01-01T14:53:18;12.65;;;3.20;;
69894;SDS011;57172;52.034;5.090;2023-01-01T14:55:48;12.10;;;3.50;;
69894;SDS011;57172;52.034;5.090;2023-01-01T14:58:19;12.32;;;3.40;;
69894;SDS011;57172;52.034;5.090;2023-01-01T15:00:49;9.47;;;3.00;;
69894;SDS011;57172;52.034;5.090;2023-01-01T15:03:18;10.30;;;2.70;;
69894;SDS011;57172;52.034;5.090;2023-01-01T15:06:02;13.93;;;3.30;;
69894;SDS011;57172;52.034;5.090;2023-01-01T15:08:29;14.18;;;3.00;;
69894;SDS011;57172;52.034;5.090;2023-01-01T15:10:56;14.32;;;3.03;;
69894;SDS011;57172;52.034;5.090;2023-01-01T15:13:24;15.47;;;3.70;;
69894;SDS011;57172;52.034;5.090;2023-01-01T15:15:54;13.38;;;3.35;;
69894;SDS011;57172;52.034;5.090;2023-01-01T15:21:16;16.67;;;3.10;;
69894;SDS011;57172;52.034;5.090;2023-01-01T15:23:52;13.32;;;3.55;;
69894;SDS011;57172;52.034;5.090;2023-01-01T15:29:16;13.60;;;3.80;;
69894;SDS011;57172;52.034;5.090;2023-01-01T15:31:52;12.18;;;4.55;;
69894;SDS011;57172;52.034;5.090;2023-01-01T15:34:29;18.98;;;5.10;;
69894;SDS011;57172;52.034;5.090;2023-01-01T15:37:07;15.95;;;4.68;;
69894;SDS011;57172;52.034;5.090;2023-01-01T15:39:46;10.80;;;3.77;;
69894;SDS011;57172;52.034;5.090;2023-01-01T15:42:26;14.38;;;4.20;;
69894;SDS011;57172;52.034;5.090;2023-01-01T15:45:14;14.00;;;4.40;;
69894;SDS011;57172;52.034;5.090;2023-01-01T15:47:48;14.63;;;3.70;;
69894;SDS011;57172;52.034;5.090;2023-01-01T15:52:43;15.47;;;3.90;;
69894;SDS011;57172;52.034;5.090;2023-01-01T15:55:20;16.30;;;4.38;;
69894;SDS011;57172;52.034;5.090;2023-01-01T15:57:48;16.83;;;4.68;;
69894;SDS011;57172;52.034;5.090;2023-01-01T16:00:19;15.40;;;4.65;;
69894;SDS011;57172;52.034;5.090;2023-01-01T16:02:49;12.80;;;3.95;;
69894;SDS011;57172;52.034;5.090;2023-01-01T16:05:19;12.40;;;4.60;;
69894;SDS011;57172;52.034;5.090;2023-01-01T16:08:23;10.45;;;4.35;;
69894;SDS011;57172;52.034;5.090;2023-01-01T16:10:42;15.48;;;5.15;;
69894;SDS011;57172;52.034;5.090;2023-01-01T16:13:11;12.57;;;4.82;;
69894;SDS011;57172;52.034;5.090;2023-01-01T16:15:48;13.93;;;3.90;;
69894;SDS011;57172;52.034;5.090;2023-01-01T16:18:16;12.83;;;4.60;;
69894;SDS011;57172;52.034;5.090;2023-01-01T16:20:43;15.20;;;4.88;;
69894;SDS011;57172;52.034;5.090;2023-01-01T16:23:12;13.02;;;3.97;;
69894;SDS011;57172;52.034;5.090;2023-01-01T16:25:40;14.73;;;4.00;;
69894;SDS011;57172;52.034;5.090;2023-01-01T16:28:07;11.73;;;4.07;;
69894;SDS011;57172;52.034;5.090;2023-01-01T16:30:34;13.33;;;3.60;;
69894;SDS011;57172;52.034;5.090;2023-01-01T16:33:01;15.60;;;4.38;;
69894;SDS011;57172;52.034;5.090;2023-01-01T16:35:29;14.18;;;4.35;;
69894;SDS011;57172;52.034;5.090;2023-01-01T16:37:57;11.88;;;3.60;;
69894;SDS011;57172;52.034;5.090;2023-01-01T16:40:23;11.60;;;3.72;;
69894;SDS011;57172;52.034;5.090;2023-01-01T16:42:52;11.83;;;3.50;;
69894;SDS011;57172;52.034;5.090;2023-01-01T16:45:18;12.13;;;3.90;;
69894;SDS011;57172;52.034;5.090;2023-01-01T16:47:45;13.75;;;3.88;;
69894;SDS011;57172;52.034;5.090;2023-01-01T16:50:12;12.65;;;3.88;;
69894;SDS011;57172;52.034;5.090;2023-01-01T16:52:39;11.35;;;3.70;;
69894;SDS011;57172;52.034;5.090;2023-01-01T16:55:10;11.37;;;4.00;;
69894;SDS011;57172;52.034;5.090;2023-01-01T16:57:38;12.63;;;3.20;;
69894;SDS011;57172;52.034;5.090;2023-01-01T17:00:06;10.15;;;3.22;;
69894;SDS011;57172;52.034;5.090;2023-01-01T17:02:34;13.98;;;3.83;;